sensor_id;sensor_type;location;lat;lon;timestamp;P1;durP1;ratioP1;P2;durP2;ratioP2
55758;SDS011;41678;52.126;20.664;2024-02-15T00:04:45;20.00;;;7.18;;
55758;SDS011;41678;52.126;20.664;2024-02-15T00:10:04;12.52;;;5.68;;
55758;SDS011;41678;52.126;20.664;2024-02-15T00:15:24;21.98;;;6.85;;
55758;SDS011;41678;52.126;20.664;2024-02-15T00:20:44;15.82;;;5.47;;
55758;SDS011;41678;52.126;20.664;2024-02-15T00:26:03;17.75;;;6.22;;
55758;SDS011;41678;52.126;20.664;2024-02-15T00:31:22;16.80;;;5.65;;
55758;SDS011;41678;52.126;20.664;2024-02-15T00:36:42;23.00;;;5.93;;
55758;SDS011;41678;52.126;20.664;2024-02-15T00:42:03;17.85;;;6.60;;
55758;SDS011;41678;52.126;20.664;2024-02-15T00:47:23;17.98;;;6.40;;
55758;SDS011;41678;52.126;20.664;2024-02-15T00:52:43;20.52;;;6.82;;
55758;SDS011;41678;52.126;20.664;2024-02-15T00:58:02;16.05;;;6.63;;
55758;SDS011;41678;52.126;20.664;2024-02-15T01:03:21;16.25;;;6.05;;
55758;SDS011;41678;52.126;20.664;2024-02-15T01:08:42;18.27;;;6.05;;
55758;SDS011;41678;52.126;20.664;2024-02-15T01:14:02;19.42;;;6.32;;
55758;SDS011;41678;52.126;20.664;2024-02-15T01:19:21;22.83;;;5.82;;
55758;SDS011;41678;52.126;20.664;2024-02-15T01:24:40;24.95;;;6.03;;
55758;SDS011;41678;52.126;20.664;2024-02-15T01:30:00;16.25;;;6.35;;
55758;SDS011;41678;52.126;20.664;2024-02-15T01:35:19;20.02;;;7.32;;
55758;SDS011;41678;52.126;20.664;2024-02-15T01:40:38;27.55;;;7.65;;
55758;SDS011;41678;52.126;20.664;2024-02-15T01:45:58;18.90;;;6.30;;
55758;SDS011;41678;52.126;20.664;2024-02-15T01:51:20;19.60;;;6.70;;
55758;SDS011;41678;52.126;20.664;2024-02-15T01:56:40;19.08;;;5.55;;
55758;SDS011;41678;52.126;20.664;2024-02-15T02:01:59;18.25;;;6.32;;
55758;SDS011;41678;52.126;20.664;2024-02-15T02:07:19;19.67;;;6.47;;
55758;SDS011;41678;52.126;20.664;2024-02-15T02:12:39;17.75;;;6.60;;
55758;SDS011;41678;52.126;20.664;2024-02-15T02:18:00;17.80;;;6.30;;
55758;SDS011;41678;52.126;20.664;2024-02-15T02:23:19;18.33;;;6.38;;
55758;SDS011;41678;52.126;20.664;2024-02-15T02:28:42;17.30;;;6.65;;
55758;SDS011;41678;52.126;20.664;2024-02-15T02:34:01;25.25;;;7.95;;
55758;SDS011;41678;52.126;20.664;2024-02-15T02:39:40;18.63;;;7.03;;
55758;SDS011;41678;52.126;20.664;2024-02-15T02:45:02;19.85;;;6.40;;
55758;SDS011;41678;52.126;20.664;2024-02-15T02:50:21;17.52;;;5.88;;
55758;SDS011;41678;52.126;20.664;2024-02-15T02:55:41;19.50;;;6.57;;
55758;SDS011;41678;52.126;20.664;2024-02-15T03:01:03;19.30;;;6.20;;
55758;SDS011;41678;52.126;20.664;2024-02-15T03:06:23;17.98;;;5.18;;
55758;SDS011;41678;52.126;20.664;2024-02-15T03:11:44;25.60;;;6.82;;
55758;SDS011;41678;52.126;20.664;2024-02-15T03:17:03;16.00;;;6.00;;
55758;SDS011;41678;52.126;20.664;2024-02-15T03:22:23;15.30;;;5.60;;
55758;SDS011;41678;52.126;20.664;2024-02-15T03:27:44;13.27;;;5.68;;
55758;SDS011;41678;52.126;20.664;2024-02-15T03:33:04;19.20;;;7.13;;
55758;SDS011;41678;52.126;20.664;2024-02-15T03:38:24;16.65;;;6.85;;
55758;SDS011;41678;52.126;20.664;2024-02-15T03:43:43;21.73;;;7.13;;
55758;SDS011;41678;52.126;20.664;2024-02-15T03:49:03;16.00;;;6.97;;
55758;SDS011;41678;52.126;20.664;2024-02-15T03:54:22;19.52;;;6.40;;
55758;SDS011;41678;52.126;20.664;2024-02-15T03:59:42;22.20;;;6.70;;
55758;SDS011;41678;52.126;20.664;2024-02-15T04:05:02;22.77;;;7.30;;
55758;SDS011;41678;52.126;20.664;2024-02-15T04:10:23;16.30;;;7.68;;
55758;SDS011;41678;52.126;20.664;2024-02-15T04:15:43;19.85;;;7.15;;
55758;SDS011;41678;52.126;20.664;2024-02-15T04:27:15;20.50;;;7.72;;
55758;SDS011;41678;52.126;20.664;2024-02-15T04:32:35;17.65;;;7.10;;
55758;SDS011;41678;52.126;20.664;2024-02-15T04:37:55;20.02;;;7.07;;
55758;SDS011;41678;52.126;20.664;2024-02-15T04:43:14;33.85;;;7.38;;
55758;SDS011;41678;52.126;20.664;2024-02-15T04:48:35;16.35;;;6.88;;
55758;SDS011;41678;52.126;20.664;2024-02-15T04:53:54;22.27;;;6.90;;
55758;SDS011;41678;52.126;20.664;2024-02-15T04:59:13;21.30;;;7.97;;
55758;SDS011;41678;52.126;20.664;2024-02-15T05:04:36;23.67;;;7.93;;
55758;SDS011;41678;52.126;20.664;2024-02-15T05:09:56;23.10;;;6.57;;
55758;SDS011;41678;52.126;20.664;2024-02-15T05:15:15;21.73;;;8.23;;
55758;SDS011;41678;52.126;20.664;2024-02-15T05:20:37;21.30;;;7.78;;
55758;SDS011;41678;52.126;20.664;2024-02-15T05:25:58;20.70;;;9.67;;
55758;SDS011;41678;52.126;20.664;2024-02-15T05:31:18;22.38;;;8.57;;
55758;SDS011;41678;52.126;20.664;2024-02-15T05:36:39;25.42;;;9.18;;
55758;SDS011;41678;52.126;20.664;2024-02-15T05:41:59;22.50;;;8.02;;
55758;SDS011;41678;52.126;20.664;2024-02-15T05:47:20;27.17;;;10.05;;
55758;SDS011;41678;52.126;20.664;2024-02-15T05:52:39;29.13;;;10.40;;
55758;SDS011;41678;52.126;20.664;2024-02-15T05:58:00;26.02;;;8.80;;
55758;SDS011;41678;52.126;20.664;2024-02-15T06:03:20;30.98;;;10.27;;
55758;SDS011;41678;52.126;20.664;2024-02-15T06:08:46;29.58;;;10.77;;
55758;SDS011;41678;52.126;20.664;2024-02-15T06:14:05;31.08;;;10.88;;
55758;SDS011;41678;52.126;20.664;2024-02-15T06:19:25;40.78;;;10.60;;
55758;SDS011;41678;52.126;20.664;2024-02-15T06:24:45;31.23;;;11.90;;
55758;SDS011;41678;52.126;20.664;2024-02-15T06:30:05;26.77;;;11.43;;
55758;SDS011;41678;52.126;20.664;2024-02-15T06:35:43;26.77;;;12.35;;
55758;SDS011;41678;52.126;20.664;2024-02-15T06:41:21;30.63;;;13.95;;
55758;SDS011;41678;52.126;20.664;2024-02-15T06:46:41;28.25;;;11.75;;
55758;SDS011;41678;52.126;20.664;2024-02-15T06:52:01;34.38;;;15.45;;
55758;SDS011;41678;52.126;20.664;2024-02-15T06:57:21;29.60;;;12.38;;
55758;SDS011;41678;52.126;20.664;2024-02-15T07:02:41;33.95;;;13.68;;
55758;SDS011;41678;52.126;20.664;2024-02-15T07:08:01;33.28;;;13.93;;
55758;SDS011;41678;52.126;20.664;2024-02-15T07:13:20;34.45;;;11.98;;
55758;SDS011;41678;52.126;20.664;2024-02-15T07:18:40;33.85;;;12.38;;
55758;SDS011;41678;52.126;20.664;2024-02-15T07:23:59;40.70;;;13.93;;
55758;SDS011;41678;52.126;20.664;2024-02-15T07:29:19;37.33;;;15.15;;
55758;SDS011;41678;52.126;20.664;2024-02-15T07:34:40;31.40;;;13.48;;
55758;SDS011;41678;52.126;20.664;2024-02-15T07:40:01;32.33;;;14.47;;
55758;SDS011;41678;52.126;20.664;2024-02-15T07:45:23;33.75;;;13.60;;
55758;SDS011;41678;52.126;20.664;2024-02-15T07:50:42;32.95;;;14.27;;
55758;SDS011;41678;52.126;20.664;2024-02-15T07:56:03;30.17;;;12.82;;
55758;SDS011;41678;52.126;20.664;2024-02-15T08:01:22;29.10;;;13.27;;
55758;SDS011;41678;52.126;20.664;2024-02-15T08:06:42;28.15;;;13.48;;
55758;SDS011;41678;52.126;20.664;2024-02-15T08:12:01;25.20;;;12.45;;
55758;SDS011;41678;52.126;20.664;2024-02-15T08:17:22;33.17;;;13.23;;
55758;SDS011;41678;52.126;20.664;2024-02-15T08:22:41;29.42;;;12.48;;
55758;SDS011;41678;52.126;20.664;2024-02-15T08:28:02;30.58;;;13.95;;
55758;SDS011;41678;52.126;20.664;2024-02-15T08:33:24;30.27;;;14.02;;
55758;SDS011;41678;52.126;20.664;2024-02-15T08:38:44;28.65;;;13.57;;
55758;SDS011;41678;52.126;20.664;2024-02-15T08:44:04;47.45;;;13.98;;
55758;SDS011;41678;52.126;20.664;2024-02-15T08:49:28;29.48;;;12.98;;
55758;SDS011;41678;52.126;20.664;2024-02-15T08:54:50;36.30;;;13.25;;
55758;SDS011;41678;52.126;20.664;2024-02-15T09:00:10;33.65;;;12.93;;
55758;SDS011;41678;52.126;20.664;2024-02-15T09:05:32;30.63;;;14.20;;
55758;SDS011;41678;52.126;20.664;2024-02-15T09:10:52;35.90;;;14.75;;
55758;SDS011;41678;52.126;20.664;2024-02-15T09:16:12;36.42;;;13.65;;
55758;SDS011;41678;52.126;20.664;2024-02-15T09:21:31;34.45;;;14.32;;
55758;SDS011;41678;52.126;20.664;2024-02-15T09:26:53;39.53;;;15.07;;
55758;SDS011;41678;52.126;20.664;2024-02-15T09:32:12;33.63;;;13.60;;
55758;SDS011;41678;52.126;20.664;2024-02-15T09:37:32;35.55;;;14.60;;
55758;SDS011;41678;52.126;20.664;2024-02-15T09:42:52;33.20;;;13.63;;
55758;SDS011;41678;52.126;20.664;2024-02-15T09:48:12;36.55;;;16.13;;
55758;SDS011;41678;52.126;20.664;2024-02-15T09:53:33;32.03;;;15.50;;
55758;SDS011;41678;52.126;20.664;2024-02-15T09:58:52;22.90;;;11.25;;
55758;SDS011;41678;52.126;20.664;2024-02-15T10:04:11;39.00;;;15.18;;
55758;SDS011;41678;52.126;20.664;2024-02-15T10:09:35;33.35;;;14.38;;
55758;SDS011;41678;52.126;20.664;2024-02-15T10:14:57;38.70;;;13.35;;
55758;SDS011;41678;52.126;20.664;2024-02-15T10:20:17;35.53;;;16.08;;
55758;SDS011;41678;52.126;20.664;2024-02-15T10:25:37;36.55;;;15.50;;
55758;SDS011;41678;52.126;20.664;2024-02-15T10:30:57;27.85;;;13.23;;
55758;SDS011;41678;52.126;20.664;2024-02-15T10:36:26;33.35;;;14.45;;
55758;SDS011;41678;52.126;20.664;2024-02-15T10:41:46;41.40;;;14.95;;
55758;SDS011;41678;52.126;20.664;2024-02-15T10:47:07;43.63;;;14.90;;
55758;SDS011;41678;52.126;20.664;2024-02-15T10:52:28;30.08;;;14.23;;
55758;SDS011;41678;52.126;20.664;2024-02-15T10:57:50;35.22;;;15.18;;
55758;SDS011;41678;52.126;20.664;2024-02-15T11:03:10;36.42;;;14.82;;
55758;SDS011;41678;52.126;20.664;2024-02-15T11:08:34;29.35;;;15.45;;
55758;SDS011;41678;52.126;20.664;2024-02-15T11:14:36;36.28;;;15.13;;
55758;SDS011;41678;52.126;20.664;2024-02-15T11:24:58;35.65;;;15.55;;
55758;SDS011;41678;52.126;20.664;2024-02-15T11:30:28;41.35;;;13.27;;
55758;SDS011;41678;52.126;20.664;2024-02-15T11:41:24;33.85;;;14.65;;
55758;SDS011;41678;52.126;20.664;2024-02-15T11:46:45;44.47;;;16.65;;
55758;SDS011;41678;52.126;20.664;2024-02-15T11:52:12;38.05;;;16.10;;
55758;SDS011;41678;52.126;20.664;2024-02-15T11:57:31;31.38;;;14.93;;
55758;SDS011;41678;52.126;20.664;2024-02-15T12:03:03;35.05;;;14.40;;
55758;SDS011;41678;52.126;20.664;2024-02-15T12:08:45;29.38;;;14.45;;
55758;SDS011;41678;52.126;20.664;2024-02-15T12:14:24;39.57;;;15.13;;
55758;SDS011;41678;52.126;20.664;2024-02-15T12:20:03;31.10;;;14.10;;
55758;SDS011;41678;52.126;20.664;2024-02-15T12:25:30;42.45;;;16.23;;
55758;SDS011;41678;52.126;20.664;2024-02-15T12:30:55;38.17;;;15.32;;
55758;SDS011;41678;52.126;20.664;2024-02-15T12:36:17;34.45;;;14.43;;
55758;SDS011;41678;52.126;20.664;2024-02-15T12:41:38;34.75;;;14.55;;
55758;SDS011;41678;52.126;20.664;2024-02-15T12:46:59;37.47;;;15.85;;
55758;SDS011;41678;52.126;20.664;2024-02-15T12:52:35;39.40;;;16.08;;
55758;SDS011;41678;52.126;20.664;2024-02-15T12:57:55;32.35;;;15.35;;
55758;SDS011;41678;52.126;20.664;2024-02-15T13:03:16;30.67;;;15.80;;
55758;SDS011;41678;52.126;20.664;2024-02-15T13:08:37;33.75;;;14.40;;
55758;SDS011;41678;52.126;20.664;2024-02-15T13:13:56;29.45;;;13.85;;
55758;SDS011;41678;52.126;20.664;2024-02-15T13:19:16;34.53;;;16.27;;
55758;SDS011;41678;52.126;20.664;2024-02-15T13:24:35;36.10;;;14.98;;
55758;SDS011;41678;52.126;20.664;2024-02-15T13:29:58;32.40;;;14.77;;
55758;SDS011;41678;52.126;20.664;2024-02-15T13:35:17;31.98;;;14.20;;
55758;SDS011;41678;52.126;20.664;2024-02-15T13:40:39;39.15;;;14.57;;
55758;SDS011;41678;52.126;20.664;2024-02-15T13:45:59;29.05;;;12.95;;
55758;SDS011;41678;52.126;20.664;2024-02-15T13:51:19;25.48;;;11.70;;
55758;SDS011;41678;52.126;20.664;2024-02-15T13:56:38;36.05;;;12.90;;
55758;SDS011;41678;52.126;20.664;2024-02-15T14:01:58;26.92;;;13.85;;
55758;SDS011;41678;52.126;20.664;2024-02-15T14:07:18;34.15;;;12.07;;
55758;SDS011;41678;52.126;20.664;2024-02-15T14:12:38;34.38;;;12.80;;
55758;SDS011;41678;52.126;20.664;2024-02-15T14:17:58;31.58;;;12.00;;
55758;SDS011;41678;52.126;20.664;2024-02-15T14:23:20;29.98;;;12.98;;
55758;SDS011;41678;52.126;20.664;2024-02-15T14:28:39;28.27;;;14.10;;
55758;SDS011;41678;52.126;20.664;2024-02-15T14:34:00;32.90;;;13.40;;
55758;SDS011;41678;52.126;20.664;2024-02-15T14:39:20;47.88;;;13.73;;
55758;SDS011;41678;52.126;20.664;2024-02-15T14:44:41;30.50;;;13.23;;
55758;SDS011;41678;52.126;20.664;2024-02-15T14:50:03;34.05;;;14.82;;
55758;SDS011;41678;52.126;20.664;2024-02-15T14:55:23;29.77;;;14.50;;
55758;SDS011;41678;52.126;20.664;2024-02-15T15:00:42;36.63;;;13.10;;
55758;SDS011;41678;52.126;20.664;2024-02-15T15:06:04;35.38;;;13.63;;
55758;SDS011;41678;52.126;20.664;2024-02-15T15:11:42;31.48;;;14.02;;
55758;SDS011;41678;52.126;20.664;2024-02-15T15:17:20;35.88;;;16.33;;
55758;SDS011;41678;52.126;20.664;2024-02-15T15:22:42;43.38;;;17.13;;
55758;SDS011;41678;52.126;20.664;2024-02-15T15:28:03;48.88;;;17.75;;
55758;SDS011;41678;52.126;20.664;2024-02-15T15:33:23;52.58;;;19.90;;
55758;SDS011;41678;52.126;20.664;2024-02-15T15:38:43;47.35;;;20.88;;
55758;SDS011;41678;52.126;20.664;2024-02-15T15:44:02;42.78;;;19.77;;
55758;SDS011;41678;52.126;20.664;2024-02-15T15:49:22;43.67;;;18.73;;
55758;SDS011;41678;52.126;20.664;2024-02-15T15:54:43;49.50;;;18.58;;
55758;SDS011;41678;52.126;20.664;2024-02-15T16:00:03;37.97;;;15.95;;
55758;SDS011;41678;52.126;20.664;2024-02-15T16:10:44;39.50;;;15.63;;
55758;SDS011;41678;52.126;20.664;2024-02-15T16:16:06;46.92;;;16.73;;
55758;SDS011;41678;52.126;20.664;2024-02-15T16:21:25;48.85;;;17.20;;
55758;SDS011;41678;52.126;20.664;2024-02-15T16:26:45;40.03;;;16.30;;
55758;SDS011;41678;52.126;20.664;2024-02-15T16:32:04;44.00;;;18.08;;
55758;SDS011;41678;52.126;20.664;2024-02-15T16:37:25;48.30;;;18.02;;
55758;SDS011;41678;52.126;20.664;2024-02-15T16:42:45;43.45;;;17.38;;
55758;SDS011;41678;52.126;20.664;2024-02-15T16:48:06;45.35;;;17.10;;
55758;SDS011;41678;52.126;20.664;2024-02-15T16:53:26;35.40;;;16.00;;
55758;SDS011;41678;52.126;20.664;2024-02-15T16:58:45;37.05;;;17.00;;
55758;SDS011;41678;52.126;20.664;2024-02-15T17:04:05;48.58;;;18.63;;
55758;SDS011;41678;52.126;20.664;2024-02-15T17:09:27;34.80;;;16.73;;
55758;SDS011;41678;52.126;20.664;2024-02-15T17:14:46;43.05;;;16.73;;
55758;SDS011;41678;52.126;20.664;2024-02-15T17:20:06;41.22;;;16.40;;
55758;SDS011;41678;52.126;20.664;2024-02-15T17:25:33;38.15;;;15.82;;
55758;SDS011;41678;52.126;20.664;2024-02-15T17:30:52;39.38;;;16.02;;
55758;SDS011;41678;52.126;20.664;2024-02-15T17:36:12;37.65;;;16.63;;
55758;SDS011;41678;52.126;20.664;2024-02-15T17:41:32;40.08;;;17.10;;
55758;SDS011;41678;52.126;20.664;2024-02-15T17:46:51;39.58;;;18.08;;
55758;SDS011;41678;52.126;20.664;2024-02-15T17:52:10;44.40;;;18.35;;
55758;SDS011;41678;52.126;20.664;2024-02-15T17:57:30;42.75;;;16.88;;
55758;SDS011;41678;52.126;20.664;2024-02-15T18:09:58;48.53;;;17.75;;
55758;SDS011;41678;52.126;20.664;2024-02-15T18:15:22;46.72;;;18.75;;
55758;SDS011;41678;52.126;20.664;2024-02-15T18:20:48;46.50;;;19.42;;
55758;SDS011;41678;52.126;20.664;2024-02-15T18:26:08;62.92;;;21.35;;
55758;SDS011;41678;52.126;20.664;2024-02-15T18:31:28;49.63;;;21.48;;
55758;SDS011;41678;52.126;20.664;2024-02-15T18:36:49;40.92;;;17.67;;
55758;SDS011;41678;52.126;20.664;2024-02-15T18:42:09;44.65;;;16.95;;
55758;SDS011;41678;52.126;20.664;2024-02-15T18:47:28;38.25;;;16.77;;
55758;SDS011;41678;52.126;20.664;2024-02-15T18:52:51;49.72;;;17.83;;
55758;SDS011;41678;52.126;20.664;2024-02-15T18:58:12;47.70;;;18.88;;
55758;SDS011;41678;52.126;20.664;2024-02-15T19:03:32;50.83;;;18.15;;
55758;SDS011;41678;52.126;20.664;2024-02-15T19:08:51;44.33;;;17.75;;
55758;SDS011;41678;52.126;20.664;2024-02-15T19:14:11;49.33;;;18.67;;
55758;SDS011;41678;52.126;20.664;2024-02-15T19:19:31;41.85;;;18.92;;
55758;SDS011;41678;52.126;20.664;2024-02-15T19:24:50;42.45;;;17.63;;
55758;SDS011;41678;52.126;20.664;2024-02-15T19:30:11;42.00;;;18.05;;
55758;SDS011;41678;52.126;20.664;2024-02-15T19:35:30;43.58;;;19.13;;
55758;SDS011;41678;52.126;20.664;2024-02-15T19:40:50;44.35;;;20.05;;
55758;SDS011;41678;52.126;20.664;2024-02-15T19:46:09;47.92;;;18.35;;
55758;SDS011;41678;52.126;20.664;2024-02-15T19:51:29;54.78;;;18.92;;
55758;SDS011;41678;52.126;20.664;2024-02-15T19:56:48;44.03;;;17.98;;
55758;SDS011;41678;52.126;20.664;2024-02-15T20:02:08;51.10;;;18.48;;
55758;SDS011;41678;52.126;20.664;2024-02-15T20:07:27;47.33;;;19.02;;
55758;SDS011;41678;52.126;20.664;2024-02-15T20:12:47;44.53;;;18.65;;
55758;SDS011;41678;52.126;20.664;2024-02-15T20:18:07;47.42;;;19.05;;
55758;SDS011;41678;52.126;20.664;2024-02-15T20:23:26;53.70;;;20.27;;
55758;SDS011;41678;52.126;20.664;2024-02-15T20:28:46;52.30;;;19.02;;
55758;SDS011;41678;52.126;20.664;2024-02-15T20:34:06;45.22;;;18.77;;
55758;SDS011;41678;52.126;20.664;2024-02-15T20:39:26;55.53;;;18.58;;
55758;SDS011;41678;52.126;20.664;2024-02-15T20:44:45;57.15;;;19.73;;
55758;SDS011;41678;52.126;20.664;2024-02-15T20:50:06;48.47;;;18.85;;
55758;SDS011;41678;52.126;20.664;2024-02-15T20:55:26;42.47;;;18.88;;
55758;SDS011;41678;52.126;20.664;2024-02-15T21:00:45;40.65;;;17.65;;
55758;SDS011;41678;52.126;20.664;2024-02-15T21:06:05;46.10;;;20.42;;
55758;SDS011;41678;52.126;20.664;2024-02-15T21:11:25;45.05;;;17.75;;
55758;SDS011;41678;52.126;20.664;2024-02-15T21:16:45;43.90;;;18.55;;
55758;SDS011;41678;52.126;20.664;2024-02-15T21:22:05;40.35;;;17.75;;
55758;SDS011;41678;52.126;20.664;2024-02-15T21:27:25;50.55;;;20.25;;
55758;SDS011;41678;52.126;20.664;2024-02-15T21:32:45;38.15;;;17.95;;
55758;SDS011;41678;52.126;20.664;2024-02-15T21:38:04;45.05;;;16.30;;
55758;SDS011;41678;52.126;20.664;2024-02-15T21:43:24;50.10;;;17.77;;
55758;SDS011;41678;52.126;20.664;2024-02-15T21:48:43;32.58;;;15.10;;
55758;SDS011;41678;52.126;20.664;2024-02-15T21:54:04;35.67;;;15.03;;
55758;SDS011;41678;52.126;20.664;2024-02-15T21:59:23;30.40;;;13.85;;
55758;SDS011;41678;52.126;20.664;2024-02-15T22:17:11;20.88;;;7.78;;
55758;SDS011;41678;52.126;20.664;2024-02-15T22:22:31;19.38;;;9.40;;
55758;SDS011;41678;52.126;20.664;2024-02-15T22:27:50;21.77;;;8.38;;
55758;SDS011;41678;52.126;20.664;2024-02-15T22:33:10;27.45;;;9.45;;
55758;SDS011;41678;52.126;20.664;2024-02-15T22:38:30;20.95;;;8.80;;
55758;SDS011;41678;52.126;20.664;2024-02-15T22:43:49;22.15;;;8.70;;
55758;SDS011;41678;52.126;20.664;2024-02-15T22:49:09;28.70;;;10.25;;
55758;SDS011;41678;52.126;20.664;2024-02-15T22:54:30;22.75;;;10.38;;
55758;SDS011;41678;52.126;20.664;2024-02-15T22:59:50;26.25;;;10.38;;
55758;SDS011;41678;52.126;20.664;2024-02-15T23:05:10;22.60;;;9.65;;
55758;SDS011;41678;52.126;20.664;2024-02-15T23:10:30;21.85;;;10.02;;
55758;SDS011;41678;52.126;20.664;2024-02-15T23:15:49;27.48;;;9.65;;
55758;SDS011;41678;52.126;20.664;2024-02-15T23:21:10;26.63;;;9.75;;
55758;SDS011;41678;52.126;20.664;2024-02-15T23:26:29;32.38;;;10.63;;
55758;SDS011;41678;52.126;20.664;2024-02-15T23:31:49;21.40;;;9.10;;
55758;SDS011;41678;52.126;20.664;2024-02-15T23:37:08;23.00;;;9.50;;
55758;SDS011;41678;52.126;20.664;2024-02-15T23:42:47;20.92;;;9.18;;
55758;SDS011;41678;52.126;20.664;2024-02-15T23:48:06;19.50;;;8.90;;
55758;SDS011;41678;52.126;20.664;2024-02-15T23:53:27;24.52;;;8.65;;
55758;SDS011;41678;52.126;20.664;2024-02-15T23:58:46;19.60;;;7.68;;
